Decoded Metar for PAYA (YAKUTAT in AK, USA) (IATA:YAK) | Meteo·Mobile Aviation Weather
aviador You're here:

PAYA Decoded Metar

YAKUTAT in AK, USA
Report Time2018-10-20 13:16:00
UTC Time2018-10-20 13:22:57
Flight Rules mvfr MVFR
Wind110° at 04 kt
W.Decomp.*RWY 11: 3.8 kt HW 1.4 kt LCW
RWY 02: 1.4 kt HW 3.8 kt RCW
W.Rank110° ranks 5
Current wind is below 110° avg. (5.9)
Visibility9999 m
Phenomena:N/A
Clouds:Broken 019 Hf
Broken 040 Hf
Overcast 048 Hf
Expected CloudBase > 400 ft AGL from Temp-Dew spread
Ceiling1,900 ft
Temp08°C (ISA -7)
Dew Point07°C (93% RH)
AAT5.8°C
QNH1010 hPa
Density Alt-558 ft
Elevation36 ft
Report Wrong Elevation
Raw Report
PAYA 201316Z AUTO 11004KT 10SM BKN019 BKN040 OVC048 08/07 A2982
RMK AO2 RAE15 P0000 T00830067 TSNO $=

Extra information for PAYA:More info

Metar Taf Metar & Taf Last 4 Metars F.Rules Stats Wind Profile Meteogram Temp Stats Airport Information Weather charts Add Link Nearby VenuesMetar ALERT Operation Metar Decoded Social comments

AIRNAV info for PAYA